createdAt,value
2017-12-13T00:00:06.574Z,11.80
2017-12-13T00:02:33.179Z,15.00
2017-12-13T00:04:59.787Z,13.73
2017-12-13T00:07:26.403Z,14.93
2017-12-13T00:09:53.009Z,10.77
2017-12-13T00:12:19.600Z,12.73
2017-12-13T00:14:46.217Z,9.83
2017-12-13T00:17:12.866Z,9.87
2017-12-13T00:19:39.477Z,11.73
2017-12-13T00:22:06.088Z,12.07
2017-12-13T00:24:32.676Z,8.50
2017-12-13T00:26:59.296Z,10.27
2017-12-13T00:29:25.973Z,10.33
2017-12-13T00:31:52.567Z,7.40
2017-12-13T00:34:19.167Z,6.90
2017-12-13T00:36:45.796Z,9.77
2017-12-13T00:39:12.389Z,9.00
2017-12-13T00:41:39.920Z,10.40
2017-12-13T00:44:07.132Z,7.73
2017-12-13T00:46:33.756Z,6.93
2017-12-13T00:49:00.348Z,7.70
2017-12-13T00:51:26.973Z,7.37
2017-12-13T00:53:53.564Z,7.47
2017-12-13T00:56:20.161Z,8.83
2017-12-13T00:58:46.760Z,8.13
2017-12-13T01:01:13.360Z,6.90
2017-12-13T01:03:39.956Z,7.00
2017-12-13T01:06:06.566Z,7.90
2017-12-13T01:08:33.164Z,13.20
2017-12-13T01:10:59.756Z,8.80
2017-12-13T01:13:26.364Z,8.57
2017-12-13T01:15:52.952Z,8.33
2017-12-13T01:18:19.548Z,8.23
2017-12-13T01:20:46.164Z,9.27
2017-12-13T01:23:12.762Z,8.83
2017-12-13T01:25:39.354Z,7.43
2017-12-13T01:28:05.954Z,6.33
2017-12-13T01:30:32.563Z,8.57
2017-12-13T01:32:59.154Z,7.13
2017-12-13T01:35:25.772Z,7.37
2017-12-13T01:37:52.368Z,6.03
2017-12-13T01:40:18.960Z,6.07
2017-12-13T01:42:45.576Z,7.57
2017-12-13T01:45:12.165Z,6.83
2017-12-13T01:47:38.753Z,6.33
2017-12-13T01:50:05.376Z,7.23
2017-12-13T01:52:31.985Z,8.00
2017-12-13T01:54:58.608Z,8.00
2017-12-13T01:57:25.213Z,6.63
2017-12-13T01:59:51.812Z,6.60
2017-12-13T02:02:18.404Z,6.50
2017-12-13T02:04:45.020Z,8.20
2017-12-13T02:07:11.621Z,7.43
2017-12-13T02:09:38.216Z,7.23
2017-12-13T02:12:04.832Z,6.40
2017-12-13T02:14:31.421Z,6.23
2017-12-13T02:16:58.026Z,6.57
2017-12-13T02:19:24.640Z,5.90
2017-12-13T02:21:51.245Z,5.77
2017-12-13T02:24:17.844Z,6.13
2017-12-13T02:26:44.449Z,5.50
2017-12-13T02:29:11.046Z,6.00
2017-12-13T02:31:37.642Z,8.10
2017-12-13T02:34:04.249Z,7.17
2017-12-13T02:36:30.852Z,5.70
2017-12-13T02:38:57.459Z,7.97
2017-12-13T02:41:24.056Z,6.60
2017-12-13T02:43:50.660Z,6.17
2017-12-13T02:46:17.277Z,7.17
2017-12-13T02:48:43.877Z,8.83
2017-12-13T02:51:10.481Z,5.90
2017-12-13T02:53:37.087Z,6.00
2017-12-13T02:56:03.694Z,5.57
2017-12-13T02:58:30.293Z,5.40
2017-12-13T03:00:56.877Z,5.70
2017-12-13T03:03:23.480Z,7.80
2017-12-13T03:05:50.067Z,6.60
2017-12-13T03:08:16.668Z,7.53
2017-12-13T03:10:43.282Z,6.73
2017-12-13T03:13:09.896Z,5.53
2017-12-13T03:15:36.500Z,5.33
2017-12-13T03:18:03.122Z,5.83
2017-12-13T03:20:29.712Z,8.60
2017-12-13T03:22:56.315Z,5.93
2017-12-13T03:25:22.913Z,6.23
2017-12-13T03:27:49.505Z,8.23
2017-12-13T03:30:16.109Z,5.90
2017-12-13T03:32:42.701Z,5.80
2017-12-13T03:35:09.347Z,5.90
2017-12-13T03:37:35.959Z,7.97
2017-12-13T03:40:02.567Z,7.37
2017-12-13T03:42:29.207Z,8.93
2017-12-13T03:44:55.820Z,8.33
2017-12-13T03:47:22.451Z,8.10
2017-12-13T03:49:49.068Z,5.97
2017-12-13T03:52:15.682Z,6.73
2017-12-13T03:54:42.303Z,10.37
2017-12-13T03:57:08.914Z,6.80
2017-12-13T03:59:35.535Z,6.90
2017-12-13T04:02:02.143Z,6.43
2017-12-13T04:04:28.752Z,7.20
2017-12-13T04:06:55.370Z,7.80
2017-12-13T04:09:21.982Z,7.37
2017-12-13T04:11:48.608Z,5.90
2017-12-13T04:14:15.225Z,9.97
2017-12-13T04:16:41.831Z,8.70
2017-12-13T04:19:08.451Z,6.37
2017-12-13T04:21:35.071Z,11.37
2017-12-13T04:24:01.707Z,8.73
2017-12-13T04:26:28.311Z,6.80
2017-12-13T04:28:54.928Z,6.17
2017-12-13T04:31:21.535Z,6.70
2017-12-13T04:33:48.147Z,5.87
2017-12-13T04:36:14.787Z,6.60
2017-12-13T04:38:41.399Z,8.57
2017-12-13T04:41:08.010Z,5.43
2017-12-13T04:43:34.627Z,4.87
2017-12-13T04:46:01.239Z,6.90
2017-12-13T04:48:27.863Z,6.77
2017-12-13T04:50:54.467Z,7.50
2017-12-13T04:53:21.087Z,10.27
2017-12-13T04:55:47.698Z,6.63
2017-12-13T04:58:14.423Z,5.67
2017-12-13T05:00:41.063Z,7.33
2017-12-13T05:03:07.663Z,5.47
2017-12-13T05:05:34.273Z,14.53
2017-12-13T05:08:00.892Z,5.30
2017-12-13T05:10:27.501Z,5.80
2017-12-13T05:12:54.119Z,5.80
2017-12-13T05:15:20.728Z,6.10
2017-12-13T05:17:47.351Z,5.80
2017-12-13T05:20:13.975Z,7.23
2017-12-13T05:22:40.586Z,6.70
2017-12-13T05:25:07.212Z,5.10
2017-12-13T05:27:33.831Z,6.93
2017-12-13T05:30:00.430Z,5.67
2017-12-13T05:32:27.051Z,4.83
2017-12-13T05:34:53.666Z,5.00
2017-12-13T05:37:20.312Z,6.00
2017-12-13T05:39:46.914Z,6.67
2017-12-13T05:42:13.523Z,7.43
2017-12-13T05:44:40.151Z,4.57
2017-12-13T05:47:06.768Z,5.10
2017-12-13T05:49:33.409Z,8.80
2017-12-13T05:52:00.015Z,5.13
2017-12-13T05:54:26.627Z,10.07
2017-12-13T05:56:53.243Z,6.67
2017-12-13T05:59:19.859Z,5.10
2017-12-13T06:01:46.486Z,5.53
2017-12-13T06:04:13.091Z,6.10
2017-12-13T06:06:39.700Z,6.97
2017-12-13T06:09:06.321Z,7.33
2017-12-13T06:11:32.927Z,6.27
2017-12-13T06:13:59.576Z,7.77
2017-12-13T06:16:26.188Z,10.23
2017-12-13T06:18:52.797Z,6.83
2017-12-13T06:21:19.415Z,6.83
2017-12-13T06:23:46.023Z,8.83
2017-12-13T06:26:12.659Z,6.67
2017-12-13T06:28:39.269Z,6.07
2017-12-13T06:31:05.871Z,6.23
2017-12-13T06:33:32.482Z,5.90
2017-12-13T06:35:59.091Z,4.93
2017-12-13T06:38:25.715Z,5.50
2017-12-13T06:40:52.322Z,9.33
2017-12-13T06:43:18.927Z,6.47
2017-12-13T06:45:45.543Z,6.43
2017-12-13T06:48:12.161Z,4.30
2017-12-13T06:50:38.764Z,5.93
2017-12-13T06:53:05.391Z,6.00
2017-12-13T06:55:32.016Z,5.33
2017-12-13T06:57:58.636Z,4.40
2017-12-13T07:00:25.272Z,3.73
2017-12-13T07:02:51.883Z,4.50
2017-12-13T07:05:18.523Z,5.97
2017-12-13T07:07:45.235Z,5.73
2017-12-13T07:10:11.947Z,6.33
2017-12-13T07:12:38.567Z,4.60
2017-12-13T07:15:05.185Z,4.53
2017-12-13T07:17:31.787Z,4.43
2017-12-13T07:19:58.531Z,4.07
2017-12-13T07:22:25.207Z,4.43
2017-12-13T07:24:51.838Z,5.17
2017-12-13T07:27:18.449Z,4.40
2017-12-13T07:29:45.052Z,8.73
2017-12-13T07:32:11.674Z,5.40
2017-12-13T07:34:38.290Z,5.70
2017-12-13T07:37:04.918Z,4.07
2017-12-13T07:39:31.527Z,5.50
2017-12-13T07:41:58.135Z,7.40
2017-12-13T07:44:24.756Z,6.50
2017-12-13T07:46:51.363Z,10.83
2017-12-13T07:49:18.008Z,3.83
2017-12-13T07:51:44.615Z,4.23
2017-12-13T07:54:11.223Z,8.20
2017-12-13T07:56:37.832Z,3.40
2017-12-13T07:59:04.984Z,5.30
2017-12-13T08:01:31.655Z,5.87
2017-12-13T08:03:58.263Z,4.30
2017-12-13T08:06:24.871Z,4.73
2017-12-13T08:08:51.492Z,3.80
2017-12-13T08:11:18.114Z,4.40
2017-12-13T08:13:44.730Z,5.73
2017-12-13T08:16:11.339Z,8.40
2017-12-13T08:18:37.962Z,4.93
2017-12-13T08:21:04.567Z,6.17
2017-12-13T08:23:31.175Z,6.33
2017-12-13T08:25:57.816Z,6.57
2017-12-13T08:28:24.559Z,8.07
2017-12-13T08:30:51.161Z,3.63
2017-12-13T08:33:17.789Z,8.80
2017-12-13T08:35:44.474Z,3.87
2017-12-13T08:38:11.122Z,6.23
2017-12-13T08:40:37.723Z,3.50
2017-12-13T08:43:04.326Z,5.10
2017-12-13T08:45:31.116Z,3.80
2017-12-13T08:47:57.739Z,5.23
2017-12-13T08:50:24.378Z,4.93
2017-12-13T08:52:50.983Z,3.93
2017-12-13T08:55:17.586Z,3.10
2017-12-13T08:57:44.200Z,5.67
2017-12-13T09:00:10.815Z,3.03
2017-12-13T09:02:37.439Z,9.20
2017-12-13T09:05:04.051Z,3.20
2017-12-13T09:07:30.652Z,4.03
2017-12-13T09:09:57.274Z,3.70
2017-12-13T09:12:23.878Z,3.30
2017-12-13T09:14:50.503Z,5.70
2017-12-13T09:17:17.107Z,5.13
2017-12-13T09:19:43.717Z,8.67
2017-12-13T09:22:10.327Z,6.03
2017-12-13T09:24:36.937Z,5.23
2017-12-13T09:27:04.496Z,8.13
2017-12-13T09:29:31.095Z,6.27
2017-12-13T09:31:57.731Z,6.43
2017-12-13T09:34:24.449Z,5.70
2017-12-13T09:36:51.048Z,3.73
2017-12-13T09:39:17.672Z,8.33
2017-12-13T09:41:44.283Z,4.63
2017-12-13T09:44:10.892Z,5.57
2017-12-13T09:46:37.528Z,7.63
2017-12-13T09:49:04.143Z,4.33
2017-12-13T09:51:30.768Z,5.10
2017-12-13T09:53:57.377Z,6.60
2017-12-13T09:56:23.978Z,4.33
2017-12-13T09:58:50.599Z,6.83
2017-12-13T10:01:17.212Z,6.77
2017-12-13T10:03:44.482Z,6.47
2017-12-13T10:06:11.095Z,5.80
2017-12-13T10:08:37.707Z,4.37
2017-12-13T10:11:04.327Z,4.73
2017-12-13T10:13:30.937Z,5.07
2017-12-13T10:15:57.564Z,9.17
2017-12-13T10:18:24.175Z,8.00
2017-12-13T10:20:50.788Z,8.37
2017-12-13T10:23:17.400Z,6.87
2017-12-13T10:25:44.008Z,7.43
2017-12-13T10:28:10.630Z,7.10
2017-12-13T10:30:37.242Z,5.77
2017-12-13T10:33:03.851Z,7.73
2017-12-13T10:35:30.472Z,4.03
2017-12-13T10:37:57.087Z,9.10
2017-12-13T10:40:23.724Z,5.60
2017-12-13T10:42:50.323Z,7.57
2017-12-13T10:45:16.932Z,5.57
2017-12-13T10:47:43.551Z,4.40
2017-12-13T10:50:10.164Z,6.63
2017-12-13T10:52:36.788Z,6.93
2017-12-13T10:55:03.393Z,4.47
2017-12-13T10:57:30.008Z,6.73
2017-12-13T10:59:56.694Z,3.50
2017-12-13T11:02:23.311Z,2.53
2017-12-13T11:04:49.927Z,2.90
2017-12-13T11:07:16.543Z,2.90
2017-12-13T11:09:43.147Z,2.13
2017-12-13T11:12:09.771Z,1.83
2017-12-13T11:14:36.402Z,2.00
2017-12-13T11:17:03.008Z,2.00
2017-12-13T11:19:29.635Z,1.97
2017-12-13T11:21:56.247Z,1.97
2017-12-13T11:24:22.859Z,1.77
2017-12-13T11:26:49.479Z,2.03
2017-12-13T11:29:16.107Z,1.57
2017-12-13T11:31:42.720Z,1.50
2017-12-13T11:34:09.335Z,1.73
2017-12-13T11:36:35.955Z,1.30
2017-12-13T11:39:02.587Z,1.60
2017-12-13T11:41:29.190Z,3.23
2017-12-13T11:43:55.828Z,5.50
2017-12-13T11:46:22.436Z,1.20
2017-12-13T11:48:49.051Z,1.20
2017-12-13T11:51:15.687Z,1.13
2017-12-13T11:53:42.311Z,1.27
2017-12-13T11:56:08.923Z,1.60
2017-12-13T11:58:35.535Z,1.10
2017-12-13T12:01:02.140Z,1.30
2017-12-13T12:03:28.767Z,1.10
2017-12-13T12:05:55.368Z,4.57
2017-12-13T12:08:21.974Z,1.43
2017-12-13T12:10:48.628Z,1.53
2017-12-13T12:13:15.236Z,2.67
2017-12-13T12:15:41.854Z,1.10
2017-12-13T12:18:08.467Z,1.00
2017-12-13T12:20:35.075Z,0.90
2017-12-13T12:23:01.688Z,1.10
2017-12-13T12:25:28.299Z,0.83
2017-12-13T12:27:54.944Z,0.90
2017-12-13T12:30:21.547Z,0.80
2017-12-13T12:32:48.163Z,1.57
2017-12-13T12:35:14.785Z,0.90
2017-12-13T12:37:41.391Z,0.97
2017-12-13T12:40:08.027Z,0.90
2017-12-13T12:42:34.667Z,0.80
2017-12-13T12:45:01.273Z,0.90
2017-12-13T12:47:27.884Z,0.90
2017-12-13T12:49:54.496Z,1.17
2017-12-13T12:52:21.107Z,0.80
2017-12-13T12:54:47.718Z,0.83
2017-12-13T12:57:14.335Z,0.80
2017-12-13T12:59:40.957Z,0.80
2017-12-13T13:02:07.579Z,0.60
2017-12-13T13:04:34.217Z,0.70
2017-12-13T13:07:00.823Z,0.70
2017-12-13T13:09:27.437Z,0.60
2017-12-13T13:11:54.052Z,0.70
2017-12-13T13:14:20.655Z,0.53
2017-12-13T13:16:47.284Z,0.70
2017-12-13T13:19:13.891Z,0.53
2017-12-13T13:21:40.499Z,0.90
2017-12-13T13:24:07.119Z,0.60
2017-12-13T13:26:33.731Z,0.80
2017-12-13T13:29:00.355Z,0.70
2017-12-13T13:31:26.963Z,0.70
2017-12-13T13:33:53.575Z,0.80
2017-12-13T13:36:20.184Z,0.80
2017-12-13T13:38:46.791Z,0.60
2017-12-13T13:41:13.414Z,0.70
2017-12-13T13:43:40.021Z,1.23
2017-12-13T13:46:06.625Z,0.60
2017-12-13T13:48:33.239Z,1.20
2017-12-13T13:50:59.842Z,0.70
2017-12-13T13:53:26.463Z,0.70
2017-12-13T13:55:53.080Z,0.63
2017-12-13T13:58:19.688Z,0.50
2017-12-13T14:00:46.336Z,0.80
2017-12-13T14:03:12.925Z,0.60
2017-12-13T14:05:39.547Z,0.60
2017-12-13T14:08:06.148Z,0.83
2017-12-13T14:10:32.756Z,0.70
2017-12-13T14:12:59.406Z,0.60
2017-12-13T14:15:26.020Z,4.10
2017-12-13T14:17:52.655Z,0.60
2017-12-13T14:20:19.261Z,0.70
2017-12-13T14:22:45.866Z,1.47
2017-12-13T14:25:12.482Z,0.60
2017-12-13T14:27:39.096Z,0.60
2017-12-13T14:30:05.747Z,0.80
2017-12-13T14:32:32.351Z,0.70
2017-12-13T14:34:58.955Z,0.90
2017-12-13T14:37:25.567Z,0.80
2017-12-13T14:39:52.175Z,0.93
2017-12-13T14:42:18.795Z,0.80
2017-12-13T14:44:45.422Z,0.93
2017-12-13T14:47:12.039Z,0.90
2017-12-13T14:49:38.655Z,1.27
2017-12-13T14:52:05.263Z,0.80
2017-12-13T14:54:31.904Z,1.37
2017-12-13T14:56:58.511Z,1.37
2017-12-13T14:59:25.116Z,0.70
2017-12-13T15:01:51.742Z,0.60
2017-12-13T15:04:18.343Z,1.60
2017-12-13T15:06:44.963Z,0.77
2017-12-13T15:09:11.575Z,0.70
2017-12-13T15:11:38.599Z,0.87
2017-12-13T15:14:05.220Z,0.87
2017-12-13T15:16:31.825Z,1.23
2017-12-13T15:18:58.433Z,0.80
2017-12-13T15:21:25.067Z,0.80
2017-12-13T15:23:51.675Z,0.80
2017-12-13T15:26:18.283Z,1.23
2017-12-13T15:28:46.928Z,0.67
2017-12-13T15:31:13.531Z,1.87
2017-12-13T15:33:40.172Z,1.27
2017-12-13T15:36:06.779Z,3.77
2017-12-13T15:38:33.386Z,0.70
2017-12-13T15:40:59.999Z,0.80
2017-12-13T15:43:26.603Z,0.80
2017-12-13T15:45:53.256Z,0.97
2017-12-13T15:48:19.858Z,0.77
2017-12-13T15:50:46.469Z,2.00
2017-12-13T15:53:13.125Z,1.43
2017-12-13T15:55:39.758Z,0.83
2017-12-13T15:58:06.384Z,0.90
2017-12-13T16:00:33.047Z,1.17
2017-12-13T16:02:59.659Z,1.00
2017-12-13T16:05:26.279Z,1.00
2017-12-13T16:07:52.892Z,0.90
2017-12-13T16:10:19.519Z,0.83
2017-12-13T16:12:46.131Z,0.90
2017-12-13T16:15:12.749Z,1.23
2017-12-13T16:17:39.367Z,0.97
2017-12-13T16:20:05.975Z,1.10
2017-12-13T16:22:32.593Z,1.00
2017-12-13T16:24:59.200Z,1.30
2017-12-13T16:27:25.812Z,1.00
2017-12-13T16:29:52.426Z,1.00
2017-12-13T16:32:19.036Z,1.30
2017-12-13T16:34:45.672Z,1.27
2017-12-13T16:37:12.303Z,0.80
2017-12-13T16:39:38.911Z,1.20
2017-12-13T16:42:06.380Z,1.10
2017-12-13T16:44:33.002Z,1.03
2017-12-13T16:46:59.620Z,0.87
2017-12-13T16:49:26.223Z,1.00
2017-12-13T16:51:52.861Z,0.90
2017-12-13T16:54:19.476Z,1.80
2017-12-13T16:56:46.083Z,0.97
2017-12-13T16:59:12.704Z,0.90
2017-12-13T17:01:39.311Z,1.00
2017-12-13T17:04:05.925Z,1.20
2017-12-13T17:06:32.536Z,1.20
2017-12-13T17:08:59.144Z,1.20
2017-12-13T17:11:25.784Z,0.93
2017-12-13T17:13:52.388Z,1.07
2017-12-13T17:16:19.003Z,1.50
2017-12-13T17:18:45.616Z,1.10
2017-12-13T17:21:12.227Z,2.67
2017-12-13T17:23:38.847Z,1.43
2017-12-13T17:26:05.458Z,1.30
2017-12-13T17:28:32.068Z,1.63
2017-12-13T17:30:58.688Z,1.33
2017-12-13T17:33:25.308Z,1.70
2017-12-13T17:35:51.920Z,1.30
2017-12-13T17:38:18.531Z,1.30
2017-12-13T17:40:45.156Z,1.10
2017-12-13T17:43:11.776Z,1.00
2017-12-13T17:45:38.396Z,1.17
2017-12-13T17:48:05.011Z,1.10
2017-12-13T17:50:31.619Z,1.10
2017-12-13T17:52:58.243Z,1.20
2017-12-13T17:55:24.847Z,1.07
2017-12-13T17:57:51.468Z,1.27
2017-12-13T18:00:18.081Z,1.20
2017-12-13T18:02:44.683Z,1.30
2017-12-13T18:05:11.302Z,1.03
2017-12-13T18:07:37.915Z,1.00
2017-12-13T18:10:04.532Z,0.97
2017-12-13T18:12:31.143Z,0.90
2017-12-13T18:14:57.755Z,0.80
2017-12-13T18:17:24.371Z,0.80
2017-12-13T18:19:50.974Z,0.90
2017-12-13T18:22:17.595Z,0.67
2017-12-13T18:24:44.204Z,1.00
2017-12-13T18:27:10.837Z,0.90
2017-12-13T18:29:37.444Z,1.17
2017-12-13T18:32:04.106Z,1.07
2017-12-13T18:34:30.676Z,1.00
2017-12-13T18:36:57.291Z,1.00
2017-12-13T18:39:23.908Z,0.90
2017-12-13T18:41:50.511Z,0.90
2017-12-13T18:44:17.135Z,0.97
2017-12-13T18:46:43.782Z,1.90
2017-12-13T18:49:10.383Z,1.13
2017-12-13T18:51:37.000Z,1.40
2017-12-13T18:54:03.607Z,1.63
2017-12-13T18:56:30.231Z,1.40
2017-12-13T18:58:56.839Z,1.30
2017-12-13T19:01:23.459Z,1.33
2017-12-13T19:03:50.064Z,1.30
2017-12-13T19:06:16.684Z,1.40
2017-12-13T19:08:43.299Z,2.13
2017-12-13T19:11:09.919Z,2.80
2017-12-13T19:13:36.531Z,2.13
2017-12-13T19:16:03.138Z,2.20
2017-12-13T19:18:29.747Z,1.20
2017-12-13T19:20:56.358Z,1.53
2017-12-13T19:23:22.987Z,1.90
2017-12-13T19:25:49.583Z,1.60
2017-12-13T19:28:16.212Z,1.60
2017-12-13T19:30:42.835Z,3.27
2017-12-13T19:33:09.461Z,1.47
2017-12-13T19:35:36.102Z,1.80
2017-12-13T19:38:02.711Z,1.60
2017-12-13T19:40:29.324Z,1.67
2017-12-13T19:42:55.932Z,1.87
2017-12-13T19:45:22.553Z,1.50
2017-12-13T19:47:49.158Z,1.33
2017-12-13T19:50:15.775Z,1.87
2017-12-13T19:52:42.382Z,3.90
2017-12-13T19:55:09.013Z,1.30
2017-12-13T19:57:35.626Z,1.50
2017-12-13T20:00:02.294Z,1.37
2017-12-13T20:02:28.912Z,1.30
2017-12-13T20:04:55.519Z,1.60
2017-12-13T20:07:22.137Z,1.73
2017-12-13T20:09:48.739Z,2.00
2017-12-13T20:12:15.367Z,1.60
2017-12-13T20:14:41.984Z,1.80
2017-12-13T20:17:08.615Z,3.33
2017-12-13T20:19:35.218Z,2.27
2017-12-13T20:22:01.954Z,2.90
2017-12-13T20:24:28.595Z,1.90
2017-12-13T20:26:55.200Z,2.50
2017-12-13T20:29:21.816Z,2.20
2017-12-13T20:31:48.424Z,2.53
2017-12-13T20:34:15.063Z,4.70
2017-12-13T20:36:41.704Z,2.10
2017-12-13T20:39:08.322Z,1.80
2017-12-13T20:41:34.945Z,1.87
2017-12-13T20:44:01.559Z,2.00
2017-12-13T20:46:28.179Z,1.73
2017-12-13T20:48:54.789Z,1.53
2017-12-13T20:51:21.402Z,1.23
2017-12-13T20:53:48.028Z,1.60
2017-12-13T20:56:14.643Z,1.40
2017-12-13T20:58:42.136Z,1.63
2017-12-13T21:01:10.743Z,1.47
2017-12-13T21:03:37.352Z,1.13
2017-12-13T21:06:03.987Z,0.93
2017-12-13T21:08:30.595Z,1.10
2017-12-13T21:10:57.215Z,0.87
2017-12-13T21:13:23.831Z,1.53
2017-12-13T21:15:50.439Z,1.53
2017-12-13T21:18:17.059Z,2.40
2017-12-13T21:20:43.667Z,0.77
2017-12-13T21:23:11.274Z,0.80
2017-12-13T21:25:37.892Z,0.90
2017-12-13T21:28:04.491Z,1.17
2017-12-13T21:30:31.115Z,0.87
2017-12-13T21:32:57.740Z,4.93
2017-12-13T21:35:24.358Z,0.83
2017-12-13T21:37:50.967Z,1.13
2017-12-13T21:40:17.579Z,9.87
2017-12-13T21:42:44.280Z,1.70
2017-12-13T21:45:10.892Z,4.27
2017-12-13T21:47:37.506Z,4.20
2017-12-13T21:50:04.127Z,3.30
2017-12-13T21:52:30.741Z,1.00
2017-12-13T21:54:57.355Z,0.97
2017-12-13T21:57:23.973Z,1.20
2017-12-13T21:59:50.591Z,1.13
2017-12-13T22:02:17.199Z,1.73
2017-12-13T22:04:43.824Z,1.40
2017-12-13T22:07:10.443Z,1.27
2017-12-13T22:09:37.056Z,0.97
2017-12-13T22:12:03.685Z,1.13
2017-12-13T22:14:30.304Z,3.07
2017-12-13T22:16:56.916Z,1.67
2017-12-13T22:19:23.531Z,1.60
2017-12-13T22:21:50.147Z,1.20
2017-12-13T22:24:16.776Z,1.70
2017-12-13T22:26:43.393Z,1.67
2017-12-13T22:29:10.051Z,1.20
2017-12-13T22:31:36.668Z,1.00
2017-12-13T22:34:03.277Z,3.40
2017-12-13T22:36:29.912Z,2.87
2017-12-13T22:38:56.518Z,0.87
2017-12-13T22:41:23.132Z,2.30
2017-12-13T22:43:49.747Z,1.20
2017-12-13T22:46:16.351Z,1.77
2017-12-13T22:48:42.967Z,1.17
2017-12-13T22:51:09.571Z,2.07
2017-12-13T22:53:36.183Z,1.00
2017-12-13T22:56:02.805Z,1.57
2017-12-13T22:58:29.415Z,2.40
2017-12-13T23:00:56.035Z,2.80
2017-12-13T23:03:22.679Z,1.23
2017-12-13T23:05:49.300Z,3.47
2017-12-13T23:08:15.907Z,3.17
2017-12-13T23:10:42.516Z,10.27
2017-12-13T23:13:09.136Z,7.90
2017-12-13T23:15:35.747Z,2.30
2017-12-13T23:18:02.352Z,3.83
2017-12-13T23:20:28.976Z,8.30
2017-12-13T23:22:55.591Z,1.50
2017-12-13T23:25:22.209Z,1.27
2017-12-13T23:27:48.822Z,1.40
2017-12-13T23:30:15.427Z,2.47
2017-12-13T23:32:42.039Z,1.33
2017-12-13T23:35:08.656Z,2.40
2017-12-13T23:37:35.255Z,4.17
2017-12-13T23:40:01.892Z,5.23
2017-12-13T23:42:28.500Z,3.97
2017-12-13T23:44:55.115Z,3.00
2017-12-13T23:47:21.734Z,3.73
2017-12-13T23:49:48.335Z,2.07
2017-12-13T23:52:14.955Z,3.00
2017-12-13T23:54:41.555Z,1.90
2017-12-13T23:57:08.164Z,1.87
2017-12-13T23:59:34.783Z,4.80
